createdAt,value
2019-04-07T00:02:14.179Z,17.77
2019-04-07T00:04:42.981Z,17.23
2019-04-07T00:07:12.127Z,16.97
2019-04-07T00:09:41.462Z,19.17
2019-04-07T00:12:11.099Z,17.63
2019-04-07T00:14:40.054Z,18.07
2019-04-07T00:17:09.459Z,17.77
2019-04-07T00:19:38.921Z,17.40
2019-04-07T00:22:08.084Z,18.53
2019-04-07T00:24:37.403Z,17.63
2019-04-07T00:27:06.900Z,18.57
2019-04-07T00:29:36.600Z,17.70
2019-04-07T00:32:05.911Z,17.90
2019-04-07T00:34:34.728Z,17.50
2019-04-07T00:37:03.847Z,18.67
2019-04-07T00:39:33.542Z,17.53
2019-04-07T00:42:02.894Z,17.57
2019-04-07T00:44:32.710Z,18.23
2019-04-07T00:47:00.922Z,17.00
2019-04-07T00:49:30.230Z,18.93
2019-04-07T00:52:00.208Z,18.07
2019-04-07T00:54:29.591Z,18.07
2019-04-07T00:56:59.387Z,18.00
2019-04-07T00:59:28.677Z,17.47
2019-04-07T01:01:58.007Z,18.30
2019-04-07T01:04:26.689Z,18.33
2019-04-07T01:06:56.069Z,18.83
2019-04-07T01:09:25.170Z,18.03
2019-04-07T01:11:54.879Z,17.40
2019-04-07T01:14:23.760Z,18.67
2019-04-07T01:16:53.096Z,18.77
2019-04-07T01:19:22.760Z,17.40
2019-04-07T01:21:51.832Z,19.07
2019-04-07T01:24:21.141Z,19.13
2019-04-07T01:26:50.502Z,18.40
2019-04-07T01:29:20.019Z,18.67
2019-04-07T01:31:49.456Z,17.67
2019-04-07T01:34:18.590Z,19.03
2019-04-07T01:36:48.049Z,19.53
2019-04-07T01:39:17.163Z,19.33
2019-04-07T01:41:51.374Z,18.50
2019-04-07T01:44:28.450Z,20.23
2019-04-07T01:47:16.888Z,19.63
2019-04-07T01:50:07.994Z,19.53
2019-04-07T01:52:54.969Z,19.93
2019-04-07T01:56:01.826Z,20.07
2019-04-07T01:58:37.031Z,18.53
2019-04-07T02:01:17.365Z,19.63
2019-04-07T02:04:11.610Z,20.70
2019-04-07T02:06:59.188Z,18.60
2019-04-07T02:09:57.254Z,18.60
2019-04-07T02:12:43.404Z,19.60
2019-04-07T02:15:37.459Z,20.27
2019-04-07T02:18:28.100Z,20.00
2019-04-07T02:21:22.482Z,20.23
2019-04-07T02:24:16.932Z,19.67
2019-04-07T02:26:55.720Z,19.67
2019-04-07T02:29:51.226Z,20.17
2019-04-07T02:32:48.556Z,18.87
2019-04-07T02:35:46.559Z,20.10
2019-04-07T02:38:24.302Z,19.20
2019-04-07T02:41:02.301Z,18.63
2019-04-07T02:43:38.953Z,19.57
2019-04-07T02:46:40.676Z,20.90
2019-04-07T02:49:37.899Z,19.27
2019-04-07T02:52:14.463Z,19.70
2019-04-07T02:55:14.362Z,20.27
2019-04-07T02:58:05.922Z,21.70
2019-04-07T03:00:52.368Z,21.33
2019-04-07T03:03:40.523Z,20.87
2019-04-07T03:06:39.399Z,21.27
2019-04-07T03:09:09.391Z,22.00
2019-04-07T03:11:44.597Z,21.17
2019-04-07T03:14:23.461Z,21.13
2019-04-07T03:17:06.720Z,20.57
2019-04-07T03:19:46.883Z,21.57
2019-04-07T03:22:53.406Z,21.40
2019-04-07T03:25:50.987Z,21.07
2019-04-07T03:28:31.110Z,21.73
2019-04-07T03:31:19.967Z,20.30
2019-04-07T03:34:15.735Z,20.67
2019-04-07T03:37:26.949Z,21.53
2019-04-07T03:39:52.546Z,19.93
2019-04-07T03:42:40.136Z,21.63
2019-04-07T03:45:17.590Z,21.23
2019-04-07T03:47:51.321Z,21.13
2019-04-07T03:50:43.009Z,21.33
2019-04-07T03:53:48.957Z,21.80
2019-04-07T03:56:31.516Z,21.70
2019-04-07T03:59:18.510Z,21.00
2019-04-07T04:02:07.895Z,21.27
2019-04-07T04:04:45.956Z,21.07
2019-04-07T04:07:29.335Z,21.70
2019-04-07T04:10:06.694Z,20.93
2019-04-07T04:13:00.898Z,21.60
2019-04-07T04:15:33.355Z,21.83
2019-04-07T04:18:03.452Z,21.73
2019-04-07T04:20:32.282Z,21.33
2019-04-07T04:23:01.160Z,21.17
2019-04-07T04:25:30.598Z,21.27
2019-04-07T04:27:59.764Z,20.83
2019-04-07T04:30:29.926Z,20.60
2019-04-07T04:32:58.334Z,21.37
2019-04-07T04:35:27.586Z,20.87
2019-04-07T04:37:56.948Z,21.60
2019-04-07T04:40:26.135Z,21.77
2019-04-07T04:42:55.465Z,20.10
2019-04-07T04:45:36.566Z,22.10
2019-04-07T04:48:06.715Z,21.63
2019-04-07T04:50:35.481Z,22.33
2019-04-07T04:53:04.386Z,22.13
2019-04-07T04:55:33.862Z,22.13
2019-04-07T04:58:02.952Z,21.93
2019-04-07T05:00:32.229Z,21.53
2019-04-07T05:03:01.498Z,22.70
2019-04-07T05:05:30.776Z,23.17
2019-04-07T05:08:03.625Z,22.10
2019-04-07T05:10:29.989Z,22.23
2019-04-07T05:12:58.932Z,22.50
2019-04-07T05:15:28.711Z,21.47
2019-04-07T05:17:57.345Z,20.77
2019-04-07T05:20:26.845Z,20.53
2019-04-07T05:22:55.970Z,21.00
2019-04-07T05:25:28.514Z,22.30
2019-04-07T05:27:58.533Z,22.20
2019-04-07T05:30:27.054Z,22.70
2019-04-07T05:32:56.839Z,22.53
2019-04-07T05:35:25.624Z,22.00
2019-04-07T05:38:02.803Z,21.90
2019-04-07T05:40:24.558Z,21.40
2019-04-07T05:42:54.355Z,21.77
2019-04-07T05:45:22.902Z,21.67
2019-04-07T05:47:53.346Z,21.40
2019-04-07T05:50:22.246Z,21.57
2019-04-07T05:52:51.435Z,22.07
2019-04-07T05:55:22.594Z,22.10
2019-04-07T05:57:49.703Z,21.83
2019-04-07T06:00:18.855Z,21.53
2019-04-07T06:02:48.208Z,22.00
2019-04-07T06:05:17.796Z,21.27
2019-04-07T06:07:46.995Z,19.80
2019-04-07T06:10:16.570Z,22.17
2019-04-07T06:12:47.937Z,20.30
2019-04-07T06:15:15.733Z,20.43
2019-04-07T06:17:43.633Z,21.73
2019-04-07T06:20:15.808Z,20.73
2019-04-07T06:22:42.205Z,21.17
2019-04-07T06:25:11.447Z,20.40
2019-04-07T06:27:44.845Z,20.00
2019-04-07T06:30:10.863Z,22.23
2019-04-07T06:32:39.767Z,21.47
2019-04-07T06:35:12.342Z,21.20
2019-04-07T06:37:38.658Z,20.57
2019-04-07T06:40:07.654Z,21.03
2019-04-07T06:42:37.561Z,20.80
2019-04-07T06:45:06.462Z,20.63
2019-04-07T06:47:56.270Z,21.97
2019-04-07T06:50:47.230Z,21.63
2019-04-07T06:53:27.999Z,20.83
2019-04-07T06:56:14.350Z,21.57
2019-04-07T06:58:59.177Z,20.13
2019-04-07T07:01:59.040Z,20.20
2019-04-07T07:04:45.452Z,20.50
2019-04-07T07:07:30.493Z,20.90
2019-04-07T07:10:28.978Z,20.00
2019-04-07T07:13:00.074Z,21.20
2019-04-07T07:15:37.156Z,19.20
2019-04-07T07:18:21.356Z,21.47
2019-04-07T07:21:13.327Z,21.07
2019-04-07T07:23:47.705Z,19.93
2019-04-07T07:26:13.414Z,19.27
2019-04-07T07:28:43.949Z,19.73
2019-04-07T07:31:11.244Z,20.67
2019-04-07T07:33:42.426Z,20.23
2019-04-07T07:36:09.686Z,20.37
2019-04-07T07:38:39.716Z,20.37
2019-04-07T07:41:08.895Z,21.07
2019-04-07T07:43:38.175Z,19.17
2019-04-07T07:46:06.869Z,23.17
2019-04-07T07:48:36.722Z,22.67
2019-04-07T07:51:07.197Z,21.87
2019-04-07T07:53:34.667Z,20.67
2019-04-07T07:56:08.317Z,20.70
2019-04-07T07:58:34.482Z,20.67
2019-04-07T08:01:03.199Z,20.33
2019-04-07T08:03:31.642Z,21.27
2019-04-07T08:06:04.798Z,19.80
2019-04-07T08:08:30.242Z,19.97
2019-04-07T08:11:01.649Z,19.17
2019-04-07T08:13:28.982Z,19.90
2019-04-07T08:15:59.420Z,19.93
2019-04-07T08:18:27.306Z,19.40
2019-04-07T08:20:56.788Z,19.73
2019-04-07T08:23:26.276Z,19.77
2019-04-07T08:25:57.049Z,21.50
2019-04-07T08:28:24.390Z,20.85
2019-04-07T08:30:54.406Z,20.23
2019-04-07T08:33:23.684Z,20.17
2019-04-07T08:35:54.892Z,20.23
2019-04-07T08:38:24.796Z,20.10
2019-04-07T08:40:52.908Z,19.67
2019-04-07T08:43:22.812Z,21.02
2019-04-07T08:45:49.405Z,20.37
2019-04-07T08:48:20.646Z,20.85
2019-04-07T08:50:48.590Z,19.67
2019-04-07T08:53:17.306Z,20.37
2019-04-07T08:55:48.717Z,21.45
2019-04-07T08:58:24.904Z,21.35
2019-04-07T09:00:50.813Z,20.52
2019-04-07T09:03:17.239Z,21.48
2019-04-07T09:05:46.723Z,21.65
2019-04-07T09:08:16.102Z,22.22
2019-04-07T09:10:50.196Z,23.47
2019-04-07T09:13:18.712Z,24.70
2019-04-07T09:16:01.043Z,24.00
2019-04-07T09:18:53.683Z,23.32
2019-04-07T09:21:38.820Z,22.20
2019-04-07T09:24:16.424Z,23.47
2019-04-07T09:26:54.415Z,21.27
2019-04-07T09:29:37.668Z,23.12
2019-04-07T09:32:30.529Z,23.92
2019-04-07T09:35:17.889Z,23.83
2019-04-07T09:38:09.835Z,24.02
2019-04-07T09:41:03.772Z,23.52
2019-04-07T09:43:51.822Z,24.65
2019-04-07T09:46:34.465Z,22.93
2019-04-07T09:49:23.838Z,22.45
2019-04-07T09:52:01.315Z,22.13
2019-04-07T09:54:46.075Z,20.40
2019-04-07T09:57:21.194Z,22.65
2019-04-07T10:00:14.817Z,20.10
2019-04-07T10:03:21.265Z,20.35
2019-04-07T10:06:10.585Z,21.57
2019-04-07T10:08:56.299Z,19.17
2019-04-07T10:11:47.468Z,18.90
2019-04-07T10:14:35.074Z,19.07
2019-04-07T10:17:14.383Z,17.82
2019-04-07T10:20:05.275Z,17.25
2019-04-07T10:23:00.624Z,16.87
2019-04-07T10:26:00.462Z,16.32
2019-04-07T10:28:36.705Z,17.50
2019-04-07T10:31:23.611Z,18.48
2019-04-07T10:34:13.065Z,17.95
2019-04-07T10:37:04.585Z,17.27
2019-04-07T10:39:44.815Z,17.23
2019-04-07T10:42:21.884Z,18.32
2019-04-07T10:45:05.902Z,18.23
2019-04-07T10:48:03.283Z,18.55
2019-04-07T10:50:45.545Z,18.40
2019-04-07T10:53:24.381Z,19.45
2019-04-07T10:56:21.834Z,18.65
2019-04-07T10:59:09.345Z,17.67
2019-04-07T11:02:12.284Z,16.87
2019-04-07T11:05:03.525Z,15.65
2019-04-07T11:08:04.967Z,15.68
2019-04-07T11:11:01.530Z,15.80
2019-04-07T11:13:49.034Z,16.42
2019-04-07T11:16:39.862Z,15.43
2019-04-07T11:19:28.111Z,15.20
2019-04-07T11:22:01.720Z,15.25
2019-04-07T11:24:43.474Z,15.70
2019-04-07T11:27:24.512Z,14.10
2019-04-07T11:30:01.649Z,15.15
2019-04-07T11:32:50.029Z,14.93
2019-04-07T11:35:29.839Z,15.83
2019-04-07T11:38:15.611Z,16.23
2019-04-07T11:41:07.693Z,15.55
2019-04-07T11:43:46.927Z,15.03
2019-04-07T11:46:35.095Z,16.55
2019-04-07T11:49:13.501Z,15.28
2019-04-07T11:51:47.871Z,17.23
2019-04-07T11:54:42.545Z,16.00
2019-04-07T11:57:33.457Z,15.95
2019-04-07T12:00:10.510Z,15.20
2019-04-07T12:03:17.222Z,15.72
2019-04-07T12:06:04.061Z,15.20
2019-04-07T12:08:51.462Z,16.15
2019-04-07T12:11:31.059Z,15.23
2019-04-07T12:14:27.629Z,15.20
2019-04-07T12:17:25.602Z,15.25
2019-04-07T12:20:16.336Z,15.60
2019-04-07T12:22:57.031Z,15.05
2019-04-07T12:25:40.110Z,15.10
2019-04-07T12:28:33.310Z,15.10
2019-04-07T12:31:19.904Z,14.18
2019-04-07T12:33:59.498Z,16.05
2019-04-07T12:36:41.935Z,15.10
2019-04-07T12:39:20.265Z,15.23
2019-04-07T12:42:08.151Z,15.32
2019-04-07T12:45:03.718Z,15.10
2019-04-07T12:47:50.262Z,15.28
2019-04-07T12:50:41.342Z,15.65
2019-04-07T12:53:34.321Z,14.75
2019-04-07T12:56:07.081Z,14.40
2019-04-07T12:59:04.491Z,14.43
2019-04-07T13:02:02.641Z,14.05
2019-04-07T13:04:36.544Z,14.58
2019-04-07T13:07:24.869Z,13.58
2019-04-07T13:10:04.176Z,13.53
2019-04-07T13:12:48.639Z,14.50
2019-04-07T13:15:36.648Z,13.08
2019-04-07T13:18:26.392Z,12.93
2019-04-07T13:21:23.000Z,12.30
2019-04-07T13:24:12.946Z,12.63
2019-04-07T13:27:04.094Z,12.47
2019-04-07T13:29:49.958Z,12.82
2019-04-07T13:32:47.146Z,12.78
2019-04-07T13:35:22.914Z,12.93
2019-04-07T13:38:17.570Z,11.90
2019-04-07T13:41:04.556Z,12.45
2019-04-07T13:43:52.780Z,12.03
2019-04-07T13:46:40.018Z,12.28
2019-04-07T13:49:45.878Z,11.78
2019-04-07T13:52:53.167Z,11.53
2019-04-07T13:55:40.931Z,10.60
2019-04-07T13:58:15.054Z,11.15
2019-04-07T14:00:53.086Z,11.73
2019-04-07T14:03:50.399Z,11.28
2019-04-07T14:06:29.506Z,10.95
2019-04-07T14:09:17.008Z,11.03
2019-04-07T14:12:10.482Z,11.15
2019-04-07T14:14:54.916Z,12.00
2019-04-07T14:17:43.095Z,11.33
2019-04-07T14:20:33.146Z,10.70
2019-04-07T14:23:22.516Z,10.23
2019-04-07T14:26:01.303Z,11.28
2019-04-07T14:28:45.778Z,10.32
2019-04-07T14:31:49.131Z,10.63
2019-04-07T14:34:46.536Z,13.28
2019-04-07T14:37:34.125Z,10.88
2019-04-07T14:40:21.406Z,11.60
2019-04-07T14:43:08.170Z,10.60
2019-04-07T14:45:56.905Z,10.63
2019-04-07T14:48:32.623Z,11.55
2019-04-07T14:51:17.552Z,11.15
2019-04-07T14:54:11.076Z,10.90
2019-04-07T14:57:02.199Z,10.95
2019-04-07T14:59:45.731Z,10.20
2019-04-07T15:02:15.630Z,10.20
2019-04-07T15:04:50.939Z,9.38
2019-04-07T15:07:28.054Z,9.18
2019-04-07T15:10:01.746Z,10.70
2019-04-07T15:12:37.867Z,9.70
2019-04-07T15:15:11.242Z,9.55
2019-04-07T15:17:37.040Z,9.75
2019-04-07T15:20:07.462Z,9.23
2019-04-07T15:22:35.430Z,8.85
2019-04-07T15:25:07.209Z,9.15
2019-04-07T15:27:34.897Z,9.40
2019-04-07T15:30:04.196Z,9.48
2019-04-07T15:32:35.482Z,9.78
2019-04-07T15:35:02.310Z,9.73
2019-04-07T15:37:31.226Z,9.18
2019-04-07T15:40:03.399Z,8.83
2019-04-07T15:42:40.393Z,8.58
2019-04-07T15:44:59.142Z,9.20
2019-04-07T15:47:28.743Z,9.28
2019-04-07T15:49:59.388Z,9.50
2019-04-07T15:52:27.491Z,9.23
2019-04-07T15:54:57.287Z,9.10
2019-04-07T15:57:25.836Z,9.40
2019-04-07T15:59:55.028Z,8.98
2019-04-07T16:02:24.697Z,8.80
2019-04-07T16:04:57.872Z,8.25
2019-04-07T16:07:23.119Z,9.15
2019-04-07T16:09:56.302Z,8.58
2019-04-07T16:12:21.970Z,8.90
2019-04-07T16:14:51.367Z,8.95
2019-04-07T16:17:21.095Z,8.58
2019-04-07T16:19:53.463Z,9.18
2019-04-07T16:22:19.118Z,22.93
2019-04-07T16:24:51.587Z,9.80
2019-04-07T16:27:17.662Z,8.65
2019-04-07T16:29:47.892Z,8.88
2019-04-07T16:32:16.276Z,8.50
2019-04-07T16:34:46.349Z,9.25
2019-04-07T16:37:15.881Z,9.03
2019-04-07T16:39:44.583Z,8.88
2019-04-07T16:42:15.287Z,8.68
2019-04-07T16:44:44.558Z,8.60
2019-04-07T16:47:21.081Z,9.33
2019-04-07T16:49:46.661Z,9.13
2019-04-07T16:52:10.726Z,8.83
2019-04-07T16:54:43.317Z,9.13
2019-04-07T16:57:09.384Z,9.03
2019-04-07T16:59:40.724Z,9.65
2019-04-07T17:02:08.039Z,9.13
2019-04-07T17:04:37.109Z,9.28
2019-04-07T17:07:12.051Z,9.88
2019-04-07T17:09:36.593Z,14.73
2019-04-07T17:12:04.900Z,14.73
2019-04-07T17:14:36.083Z,11.00
2019-04-07T17:17:03.701Z,9.63
2019-04-07T17:19:32.813Z,9.25
2019-04-07T17:22:03.024Z,9.55
2019-04-07T17:24:31.289Z,8.98
2019-04-07T17:27:02.954Z,9.65
2019-04-07T17:29:30.112Z,9.40
2019-04-07T17:32:01.755Z,8.75
2019-04-07T17:34:29.135Z,9.10
2019-04-07T17:36:57.750Z,9.65
2019-04-07T17:39:38.474Z,11.05
2019-04-07T17:42:05.874Z,11.50
2019-04-07T17:44:49.188Z,10.48
2019-04-07T17:47:36.710Z,10.28
2019-04-07T17:50:31.642Z,9.20
2019-04-07T17:53:25.358Z,9.48
2019-04-07T17:56:29.477Z,9.83
2019-04-07T17:59:19.137Z,9.87
2019-04-07T18:02:14.191Z,10.27
2019-04-07T18:05:04.451Z,9.80
2019-04-07T18:07:53.141Z,10.47
2019-04-07T18:10:40.371Z,10.10
2019-04-07T18:13:42.193Z,10.43
2019-04-07T18:16:15.065Z,9.70
2019-04-07T18:19:02.713Z,9.83
2019-04-07T18:21:52.456Z,9.23
2019-04-07T18:24:29.905Z,9.57
2019-04-07T18:27:25.344Z,9.67
2019-04-07T18:30:02.268Z,10.23
2019-04-07T18:32:41.883Z,10.17
2019-04-07T18:35:34.694Z,9.20
2019-04-07T18:38:21.629Z,9.23
2019-04-07T18:41:11.183Z,8.73
2019-04-07T18:44:10.839Z,9.13
2019-04-07T18:46:58.783Z,18.63
2019-04-07T18:49:49.887Z,11.40
2019-04-07T18:52:31.073Z,10.37
2019-04-07T18:55:18.385Z,9.67
2019-04-07T18:58:03.669Z,9.57
2019-04-07T19:00:54.369Z,9.13
2019-04-07T19:03:41.838Z,9.27
2019-04-07T19:06:25.869Z,8.87
2019-04-07T19:09:19.443Z,8.83
2019-04-07T19:12:18.761Z,8.67
2019-04-07T19:15:02.496Z,8.17
2019-04-07T19:17:40.550Z,8.40
2019-04-07T19:20:38.334Z,8.50
2019-04-07T19:23:16.358Z,9.03
2019-04-07T19:26:03.106Z,8.50
2019-04-07T19:28:48.449Z,8.23
2019-04-07T19:31:43.801Z,10.87
2019-04-07T19:34:32.849Z,9.03
2019-04-07T19:37:15.565Z,10.83
2019-04-07T19:39:53.555Z,10.10
2019-04-07T19:42:41.496Z,9.20
2019-04-07T19:45:26.020Z,42.03
2019-04-07T19:48:07.087Z,45.23
2019-04-07T19:50:52.901Z,22.43
2019-04-07T19:53:32.575Z,12.93
2019-04-07T19:56:10.134Z,9.70
2019-04-07T19:58:58.362Z,10.43
2019-04-07T20:01:52.574Z,11.53
2019-04-07T20:04:45.848Z,28.23
2019-04-07T20:07:44.048Z,14.17
2019-04-07T20:10:22.146Z,10.83
2019-04-07T20:13:00.394Z,9.50
2019-04-07T20:15:47.240Z,8.83
2019-04-07T20:18:37.611Z,10.93
2019-04-07T20:21:34.756Z,13.77
2019-04-07T20:24:08.797Z,8.77
2019-04-07T20:26:54.330Z,9.73
2019-04-07T20:29:42.649Z,9.50
2019-04-07T20:32:34.754Z,9.70
2019-04-07T20:35:21.601Z,9.23
2019-04-07T20:38:03.411Z,9.20
2019-04-07T20:40:53.203Z,9.67
2019-04-07T20:43:56.940Z,26.27
2019-04-07T20:46:57.651Z,19.73
2019-04-07T20:49:50.278Z,11.33
2019-04-07T20:52:43.435Z,8.93
2019-04-07T20:55:37.326Z,8.03
2019-04-07T20:58:42.930Z,9.10
2019-04-07T21:01:12.981Z,8.40
2019-04-07T21:03:51.698Z,8.10
2019-04-07T21:06:58.949Z,7.83
2019-04-07T21:09:40.005Z,8.67
2019-04-07T21:12:29.750Z,9.23
2019-04-07T21:15:26.779Z,9.30
2019-04-07T21:18:05.343Z,9.53
2019-04-07T21:20:44.589Z,9.67
2019-04-07T21:23:38.128Z,9.33
2019-04-07T21:26:27.779Z,9.80
2019-04-07T21:29:08.154Z,10.40
2019-04-07T21:31:42.980Z,11.43
2019-04-07T21:34:21.143Z,11.10
2019-04-07T21:37:16.445Z,9.00
2019-04-07T21:40:06.294Z,9.10
2019-04-07T21:42:42.899Z,10.53
2019-04-07T21:45:38.994Z,9.87
2019-04-07T21:48:34.968Z,8.30
2019-04-07T21:51:27.177Z,9.83
2019-04-07T21:54:02.672Z,10.27
2019-04-07T21:56:53.908Z,8.33
2019-04-07T21:59:47.916Z,8.50
2019-04-07T22:02:22.439Z,8.40
2019-04-07T22:05:05.965Z,8.80
2019-04-07T22:07:44.741Z,8.00
2019-04-07T22:10:13.711Z,8.33
2019-04-07T22:12:42.413Z,8.37
2019-04-07T22:15:13.926Z,8.13
2019-04-07T22:17:40.809Z,8.50
2019-04-07T22:20:10.474Z,8.27
2019-04-07T22:22:39.241Z,8.43
2019-04-07T22:25:09.757Z,9.40
2019-04-07T22:27:37.663Z,9.07
2019-04-07T22:30:07.756Z,9.97
2019-04-07T22:32:36.473Z,9.70
2019-04-07T22:35:06.855Z,8.87
2019-04-07T22:37:35.677Z,8.77
2019-04-07T22:40:05.148Z,20.27
2019-04-07T22:42:33.759Z,11.10
2019-04-07T22:45:03.977Z,9.77
2019-04-07T22:47:32.268Z,9.83
2019-04-07T22:50:04.490Z,9.13
2019-04-07T22:52:30.857Z,9.17
2019-04-07T22:55:04.228Z,9.20
2019-04-07T22:57:29.380Z,8.07
2019-04-07T22:59:58.767Z,8.47
2019-04-07T23:02:27.954Z,8.97
2019-04-07T23:04:57.273Z,9.73
2019-04-07T23:07:26.472Z,9.30
2019-04-07T23:09:55.969Z,8.70
2019-04-07T23:12:24.958Z,9.20
2019-04-07T23:14:55.027Z,8.80
2019-04-07T23:17:23.898Z,9.00
2019-04-07T23:19:52.671Z,8.07
2019-04-07T23:22:22.101Z,9.40
2019-04-07T23:24:51.172Z,9.67
2019-04-07T23:27:20.419Z,9.13
2019-04-07T23:29:50.683Z,8.43
2019-04-07T23:32:19.191Z,9.07
2019-04-07T23:34:48.257Z,8.87
2019-04-07T23:37:17.570Z,8.93
2019-04-07T23:39:46.761Z,9.20
2019-04-07T23:42:16.081Z,9.33
2019-04-07T23:44:45.766Z,9.33
2019-04-07T23:47:15.275Z,9.53
2019-04-07T23:49:44.735Z,8.93
2019-04-07T23:52:13.173Z,8.60
2019-04-07T23:54:42.460Z,8.90
2019-04-07T23:57:11.716Z,9.23
2019-04-07T23:59:40.936Z,9.27
